EDT,Max TemperatureF,Mean TemperatureF,Min TemperatureF,Max Dew PointF,MeanDew PointF,Min DewpointF,Max Humidity, Mean Humidity, Min Humidity, Max Sea Level PressureIn, Mean Sea Level PressureIn, Min Sea Level PressureIn, Max VisibilityMiles, Mean VisibilityMiles, Min VisibilityMiles, Max Wind SpeedMPH, Mean Wind SpeedMPH, Max Gust SpeedMPH,PrecipitationIn, CloudCover, Events, WindDirDegrees
2011-10-1,56,47,38,44,39,28,100,82,34,30.24,30.18,30.08,10,10,10,17,9,22,0.00,1,,341
2011-10-2,64,50,35,47,34,19,100,69,19,30.26,30.20,30.13,10,9,2,15,6,21,0.00,0,,317
2011-10-3,70,54,38,52,40,29,100,72,21,30.22,30.18,30.14,10,10,10,13,5,,0.00,0,,328
2011-10-4,75,57,41,54,38,21,100,58,14,30.32,30.27,30.22,10,9,2,4,0,,0.00,0,,64
2011-10-5,81,64,46,55,43,34,100,54,18,30.31,30.24,30.20,10,8,2,6,2,,0.00,0,,149
2011-10-6,81,65,48,63,49,39,100,73,22,30.32,30.26,30.23,10,7,4,8,3,,0.00,0,,136
2011-10-7,84,67,51,61,51,40,100,66,21,30.38,30.32,30.28,10,10,10,10,6,,0.00,0,,144
2011-10-8,83,66,51,61,53,43,100,70,25,30.39,30.34,30.30,10,10,10,8,6,,0.00,0,,159
2011-10-9,81,66,51,66,52,37,100,73,24,30.39,30.32,30.25,10,9,5,10,3,,0.00,0,,117
2011-10-10,79,65,51,57,50,40,99,66,25,30.26,30.18,30.09,10,10,10,14,6,17,0.00,1,,134
2011-10-11,81,66,51,57,45,28,99,58,15,30.08,30.01,29.94,10,10,7,10,6,21,0.00,0,,127
2011-10-12,73,64,53,61,52,45,100,74,37,29.93,29.83,29.72,10,10,9,13,7,20,0.00,1,,126
2011-10-13,63,58,53,63,58,53,100,100,100,29.70,29.55,29.46,10,7,4,18,6,23,0.21,7,Rain,161
2011-10-14,62,54,46,55,48,37,100,82,40,29.71,29.61,29.50,10,9,4,31,16,39,0.06,3,Rain-Thunderstorm,277
2011-10-15,61,52,44,48,40,28,100,69,29,29.93,29.84,29.71,10,10,10,28,18,38,0.01,1,,266
2011-10-16,66,56,46,45,39,35,81,53,37,29.94,29.84,29.74,10,10,10,23,12,32,0.00,2,,255
2011-10-17,61,49,37,41,27,12,99,50,14,29.93,29.88,29.84,10,10,9,20,12,29,0.00,2,Rain,262
2011-10-18,50,46,42,46,45,31,100,98,47,29.87,29.82,29.75,10,8,4,9,6,,0.32,7,Rain,278
2011-10-19,46,44,42,46,45,43,100,100,100,29.71,29.48,29.34,10,8,2,22,14,29,1.12,8,Rain,356
2011-10-20,45,43,41,45,43,42,100,100,100,29.88,29.53,29.31,10,9,2,28,20,36,0.76,8,Rain,295
2011-10-21,54,44,34,48,42,34,100,90,55,30.12,30.04,29.89,10,10,10,10,8,,0.00,3,,266
2011-10-22,62,46,32,45,36,29,100,75,29,30.14,30.10,30.05,10,10,6,12,3,,0.00,0,,208
2011-10-23,66,54,42,55,44,33,99,74,29,30.04,29.99,29.95,10,9,4,13,7,24,0.00,3,,213
2011-10-24,62,52,44,55,49,24,100,87,24,30.17,30.00,29.91,10,8,2,23,11,32,0.21,5,Rain-Thunderstorm,268
2011-10-25,71,56,41,49,38,28,99,52,23,30.18,30.00,29.79,10,9,4,22,12,32,0.00,2,Rain-Thunderstorm,192
2011-10-26,66,57,48,59,51,43,100,91,43,29.88,29.83,29.75,10,8,3,24,13,32,0.00,7,Rain-Thunderstorm,323
2011-10-27,48,43,37,48,44,37,100,98,79,30.16,29.95,29.86,10,10,7,17,9,23,0.07,7,Rain,357
2011-10-28,51,41,31,44,33,26,100,83,37,30.23,30.17,30.10,10,8,1,6,1,,0.00,3,,174
2011-10-29,55,44,33,43,33,15,100,83,23,30.16,30.07,30.04,10,7,3,15,6,20,0.00,2,Rain,213
2011-10-30,56,42,28,38,29,20,100,64,26,30.21,30.13,30.04,10,10,10,21,7,31,0.00,3,,174
2011-10-31,56,46,37,50,36,24,100,71,29,30.18,30.05,29.97,10,10,10,12,8,,0.02,3,Rain,229